• Join FlightAware (Why Join?)
  • Login
  • US Flag 
06:21PM EDT


 

Airport Tracker/Info


-or-


 

Live Flight TrackerFlight Track Log ✈ DAL268 ✈ 26-Jul-2013 ✈ KSFO - KJFK

Flight Track Log - Related Links

Times and Time Zones

All times are in EDT time to prevent confusion due to time zone crossing. See the DAL268 flight status page for this flight to view local times or setup timezone preferences in your user account.

Time Position Orientation Groundspeed Altitude Reporting Facility
EDT Latitude Longitude Course Direction KTS MPH feet Rate Location/Type
02:19PM 37.6150 -122.3820 North 11 13  Level FlightAware
02:20PM 37.6160 -122.3810 38° Northeast 15 17  Level FlightAware
02:21PM 37.6160 -122.3800 90° East 60 Level FlightAware
02:23PM 37.7970 -122.1864 38° Northeast  Level FlightAware Approximate
02:24PM 37.8921 -122.0912 38° Northeast  Level FlightAware Approximate
02:24PM 37.6150 -122.3810 38° Northeast 16 18  Level FlightAware
02:24PM 37.6140 -122.3810 180° South 28 32 60 Level FlightAware
02:25PM 37.6120 -122.3830 218° Southwest 28 32 60 Level FlightAware
02:25PM 37.6100 -122.3840 202° Southwest 26 30 60 Level FlightAware
02:26PM 37.6090 -122.3850 218° Southwest 31 36 60 Level FlightAware
02:27PM 37.6050 -122.3850 180° South 31 36 60 Level FlightAware
02:27PM 37.6060 -122.3830 58° Northeast 26 30 60 Level FlightAware
02:30PM 37.8585 -122.1249 38° Northeast  Level FlightAware Approximate
02:31PM 37.9537 -122.0297 38° Northeast  Level FlightAware Approximate
02:31PM 37.6060 -122.3820 38° Northeast  Level FlightAware
02:33PM 37.6070 -122.3810 38° Northeast 2 2 180 Level FlightAware
02:34PM 37.8504 -122.1329 38° Northeast  Level FlightAware Approximate
02:35PM 37.6070 -122.3800 90° East 30 35  Level FlightAware
02:35PM 37.6180 -122.3740 23° Northeast 150 173 1,080 Level FlightAware
02:36PM 37.6380 -122.3600 29° Northeast 163 188 1,000 1,860 Climbing FlightAware
02:36PM 37.6550 -122.3400 43° Northeast 198 228 1,800 1,560 Climbing FlightAware
02:37PM 37.6740 -122.3150 46° Northeast 232 267 2,500 1,560 Climbing FlightAware
02:37PM 37.6970 -122.2850 46° Northeast 264 304 3,300 2,220 Climbing FlightAware
02:38PM 37.7210 -122.2590 41° Northeast 269 310 4,500 2,760 Climbing FlightAware
02:38PM 37.7400 -122.2550 North 275 316 5,200 3,000 Climbing FlightAware
02:38PM 37.7760 -122.2630 350° North 271 312 6,700 2,520 Climbing FlightAware
02:39PM 37.8100 -122.2560 North 286 329 7,600 2,040 Climbing FlightAware
02:39PM 37.8270 -122.2390 38° Northeast 293 337 8,200 2,520 Climbing FlightAware
02:39PM 37.8400 -122.2240 42° Northeast 294 338 8,800 2,640 Climbing FlightAware
02:40PM 37.8820 -122.1760 42° Northeast 301 346 10,600 1,800 Climbing FlightAware
02:41PM 37.9260 -122.1300 40° Northeast 342 394 11,200 1,140 Climbing FlightAware
02:41PM 37.9870 -122.0610 42° Northeast 381 438 12,300 1,680 Climbing FlightAware
02:42PM 38.0430 -121.9980 42° Northeast 392 451 13,800 2,040 Climbing FlightAware
02:43PM 38.0980 -121.9370 41° Northeast 406 467 15,100 1,980 Climbing FlightAware
02:44PM 38.1620 -121.8660 41° Northeast 416 479 16,600 2,040 Climbing FlightAware
02:44PM 38.2170 -121.8060 41° Northeast 420 483 17,900 1,860 Climbing FlightAware
02:45PM 38.2820 -121.7330 41° Northeast 431 496 19,200 1,740 Climbing FlightAware
02:46PM 38.3470 -121.6600 41° Northeast 443 510 20,400 1,620 Climbing FlightAware
02:46PM 38.3980 -121.6020 42° Northeast 452 520 21,300 1,500 Climbing FlightAware
02:47PM 38.4660 -121.5130 46° Northeast 464 534 22,400 1,380 Climbing FlightAware
02:48PM 38.5190 -121.4230 53° Northeast 474 545 23,300 1,320 Climbing FlightAware
02:48PM 38.5660 -121.3420 53° Northeast 484 557 24,100 1,380 Climbing FlightAware
02:49PM 38.6330 -121.2270 53° Northeast 492 566 25,300 1,380 Climbing FlightAware
02:50PM 38.6870 -121.1330 54° Northeast 498 573 26,200 1,320 Climbing FlightAware
02:50PM 38.7430 -121.0370 53° Northeast 504 580 27,100 1,320 Climbing FlightAware
02:51PM 38.7940 -120.9490 53° Northeast 510 587 27,900 1,200 Climbing FlightAware
02:52PM 38.8450 -120.8590 54° Northeast 515 593 28,600 1,320 Climbing FlightAware
02:52PM 38.9060 -120.7530 53° Northeast 513 590 29,700 1,440 Climbing FlightAware
02:53PM 38.9610 -120.6580 53° Northeast 514 592 30,600 1,260 Climbing FlightAware
02:54PM 39.0230 -120.5520 53° Northeast 514 592 31,500 1,260 Climbing FlightAware
02:54PM 39.0730 -120.4650 53° Northeast 516 594 32,300 1,260 Climbing FlightAware
02:55PM 39.1420 -120.3450 53° Northeast 517 595 33,300 1,200 Climbing FlightAware
02:56PM 39.2000 -120.2430 54° Northeast 516 594 34,100 1,140 Climbing FlightAware
02:57PM 39.2610 -120.1350 54° Northeast 516 594 34,900 1,080 Climbing FlightAware
02:57PM 39.3160 -120.0390 53° Northeast 517 595 35,600 1,020 Climbing FlightAware
02:58PM 39.3740 -119.9360 54° Northeast 518 596 36,300 900 Climbing FlightAware
02:58PM 39.4240 -119.8470 54° Northeast 519 597 36,800 480 Climbing FlightAware
02:59PM 39.4850 -119.7390 54° Northeast 522 601 37,000 120 Climbing FlightAware
03:00PM 39.5380 -119.6450 54° Northeast 524 603 37,000  Level FlightAware
03:00PM 39.5980 -119.5370 54° Northeast 524 603 37,000  Level FlightAware
03:01PM 39.6540 -119.4360 54° Northeast 522 601 37,000  Level FlightAware
03:02PM 39.7110 -119.3330 54° Northeast 522 601 37,000  Level FlightAware
03:03PM 39.7670 -119.2100 59° Northeast 521 600 37,000  Level FlightAware
03:03PM 39.8070 -119.1000 65° Northeast 520 598 37,000  Level FlightAware
03:04PM 39.8540 -118.9730 64° Northeast 521 600 37,000  Level FlightAware
03:05PM 39.8950 -118.8610 64° Northeast 519 597 37,000  Level FlightAware
03:05PM 39.9320 -118.7600 64° Northeast 519 597 37,000  Level FlightAware
03:06PM 39.9740 -118.6400 65° Northeast 519 597 37,000  Level FlightAware
03:07PM 40.0180 -118.5180 65° Northeast 519 597 37,000  Level FlightAware
03:07PM 40.0510 -118.4240 65° Northeast 521 600 37,000  Level FlightAware
03:08PM 40.0910 -118.3110 65° Northeast 523 602 37,000  Level FlightAware
03:09PM 40.1340 -118.1890 65° Northeast 523 602 37,000  Level FlightAware
03:09PM 40.1670 -118.0940 66° East 523 602 37,000  Level FlightAware
03:10PM 40.2010 -117.9990 65° Northeast 523 602 37,000  Level FlightAware
03:11PM 40.2680 -117.8060 65° Northeast 522 601 37,000  Level FlightAware
03:12PM 40.3100 -117.6890 65° Northeast 522 601 37,000  Level FlightAware
03:12PM 40.3440 -117.5930 65° Northeast 522 601 37,000  Level FlightAware
03:13PM 40.3860 -117.4740 65° Northeast 522 601 37,000  Level FlightAware
03:14PM 40.4170 -117.3860 65° Northeast 522 601 37,000  Level FlightAware
03:15PM 40.4590 -117.2680 65° Northeast 522 601 37,000  Level FlightAware
03:15PM 40.4900 -117.1800 65° Northeast 522 601 37,000  Level FlightAware
03:16PM 40.5320 -117.0630 65° Northeast 522 601 37,000  Level FlightAware
03:17PM 40.5630 -116.9750 65° Northeast 522 601 37,000  Level FlightAware
03:17PM 40.6050 -116.8570 65° Northeast 522 601 37,000  Level FlightAware
03:18PM 40.6360 -116.7690 65° Northeast 522 601 37,000  Level FlightAware
03:19PM 40.6690 -116.6760 65° Northeast 522 601 37,000  Level FlightAware
03:19PM 40.7100 -116.5580 65° Northeast 522 601 37,000  Level FlightAware
03:20PM 40.7648 -116.1980 79° East 37,000  Level FlightAware ADS-B
03:20PM 40.7687 -116.1830 71° East 529 609 37,000  Level FlightAware ADS-B
03:20PM 40.7943 -116.0870 71° East 529 609 37,000  Level FlightAware ADS-B
03:21PM 40.8199 -115.9900 71° East 529 609 37,000  Level FlightAware ADS-B
03:22PM 40.8574 -115.8480 71° East 530 610 37,000  Level FlightAware ADS-B
03:24PM 40.9730 -115.4040 71° East 527 606 37,000  Level FlightAware ADS-B
03:25PM 40.9969 -115.3100 71° East 529 609 37,000  Level FlightAware ADS-B
03:25PM 41.0214 -115.2150 71° East 531 611 37,000  Level FlightAware ADS-B
03:26PM 41.0448 -115.1230 71° East 529 609 37,000  Level FlightAware ADS-B
03:26PM 41.0790 -114.9900 71° East 530 610 37,000  Level FlightAware
03:27PM 41.0900 -114.9450 72° East 529 609 37,000  Level FlightAware ADS-B
03:27PM 41.1156 -114.8440 71° East 531 611 37,000  Level FlightAware ADS-B
03:28PM 41.1392 -114.7500 72° East 532 612 37,000  Level FlightAware ADS-B
03:28PM 41.1628 -114.6560 72° East 533 613 37,000  Level FlightAware ADS-B
03:29PM 41.1862 -114.5620 72° East 534 615 37,000  Level FlightAware ADS-B
03:29PM 41.2096 -114.4670 72° East 533 613 37,000  Level FlightAware ADS-B
03:30PM 41.2327 -114.3740 72° East 534 615 37,000  Level FlightAware ADS-B
03:30PM 41.2559 -114.2800 72° East 533 613 37,000  Level FlightAware ADS-B
03:31PM 41.2996 -114.1020 72° East 535 616 37,000  Level FlightAware ADS-B
03:32PM 41.3224 -114.0080 72° East 535 616 37,000  Level FlightAware ADS-B
03:32PM 41.3442 -113.9180 72° East 535 616 37,000  Level FlightAware ADS-B
03:33PM 41.3593 -113.8390 76° East 534 615 37,000  Level FlightAware ADS-B
03:33PM 41.3688 -113.7540 82° East 533 613 37,000  Level FlightAware ADS-B
03:34PM 41.3762 -113.6550 84° East 535 616 37,000  Level FlightAware ADS-B
03:34PM 41.3827 -113.5550 85° East 536 617 37,000  Level FlightAware ADS-B
03:35PM 41.3890 -113.4550 85° East 537 618 37,000  Level FlightAware ADS-B
03:35PM 41.3954 -113.3530 85° East 536 617 37,000  Level FlightAware ADS-B
03:36PM 41.4026 -113.2360 85° East 538 619 37,000  Level FlightAware ADS-B
03:36PM 41.4090 -113.1330 85° East 536 617 37,000  Level FlightAware ADS-B
03:37PM 41.4150 -113.0340 85° East 533 613 37,000  Level FlightAware ADS-B
03:37PM 41.4213 -112.9310 85° East 530 610 37,000  Level FlightAware ADS-B
03:38PM 41.4272 -112.8330 85° East 530 610 37,000  Level FlightAware ADS-B
03:38PM 41.4331 -112.7340 85° East 532 612 37,000  Level FlightAware ADS-B
03:39PM 41.4388 -112.6350 86° East 532 612 37,000  Level FlightAware ADS-B
03:39PM 41.4449 -112.5300 86° East 532 612 37,000  Level FlightAware ADS-B
03:40PM 41.4508 -112.4260 86° East 532 612 37,000  Level FlightAware ADS-B
03:40PM 41.4571 -112.3120 86° East 529 609 37,000  Level FlightAware ADS-B
03:41PM 41.4626 -112.2100 86° East 529 609 37,000  Level FlightAware ADS-B
03:41PM 41.4679 -112.1120 86° East 529 609 37,000  Level FlightAware ADS-B
03:42PM 41.4730 -112.0140 86° East 529 609 37,000  Level FlightAware ADS-B
03:42PM 41.4782 -111.9140 86° East 529 609 37,000  Level FlightAware ADS-B
03:43PM 41.4832 -111.8160 86° East 530 610 37,000  Level FlightAware ADS-B
03:44PM 41.4885 -111.7090 86° East 530 610 37,000  Level FlightAware ADS-B
03:44PM 41.4935 -111.6080 86° East 529 609 37,000  Level FlightAware ADS-B
03:45PM 41.4982 -111.5100 86° East 529 609 37,000  Level FlightAware ADS-B
03:45PM 41.5028 -111.4130 86° East 529 609 37,000  Level FlightAware ADS-B
03:46PM 41.5074 -111.3130 86° East 529 609 37,000  Level FlightAware ADS-B
03:46PM 41.5124 -111.2050 86° East 528 608 37,000  Level FlightAware ADS-B
03:47PM 41.5168 -111.1050 87° East 528 608 37,000  Level FlightAware ADS-B
03:47PM 41.5217 -110.9940 87° East 529 609 37,000  Level FlightAware ADS-B
03:48PM 41.5265 -110.8830 87° East 528 608 37,000  Level FlightAware ADS-B
03:48PM 41.5305 -110.7850 87° East 529 609 37,000  Level FlightAware ADS-B
03:49PM 41.5360 -110.6610 87° East 529 609 37,000  Level FlightAware
03:49PM 41.5400 -110.5440 87° East 529 609 37,000  Level FlightAware
03:50PM 41.5450 -110.4230 87° East 527 606 37,000  Level FlightAware
03:51PM 41.5550 -110.1530 87° East 528 608 37,000  Level FlightAware
03:52PM 41.5590 -110.0390 87° East 527 606 37,000  Level FlightAware
03:53PM 41.5640 -109.8930 87° East 526 605 37,000  Level FlightAware
03:54PM 41.5690 -109.7520 87° East 528 608 37,000  Level FlightAware
03:54PM 41.5730 -109.6140 88° East 529 609 37,000  Level FlightAware
03:55PM 41.5770 -109.4870 88° East 529 609 37,000  Level FlightAware
03:56PM 41.5810 -109.3460 88° East 529 609 37,000  Level FlightAware
03:56PM 41.5850 -109.2230 87° East 529 609 37,000  Level FlightAware
03:57PM 41.5890 -109.0660 88° East 526 605 37,000  Level FlightAware
03:58PM 41.6010 -108.9250 83° East 524 603 37,000  Level FlightAware
03:58PM 41.6160 -108.7990 81° East 526 605 37,000  Level FlightAware
03:59PM 41.6320 -108.6660 81° East 526 605 37,000  Level FlightAware
04:00PM 41.6520 -108.4970 81° East 523 602 37,000  Level FlightAware
04:01PM 41.6660 -108.3760 81° East 523 602 37,000  Level FlightAware
04:01PM 41.6830 -108.2350 81° East 523 602 37,000  Level FlightAware
04:02PM 41.6990 -108.0950 81° East 521 600 37,000  Level FlightAware
04:03PM 41.7130 -107.9670 82° East 523 602 37,000  Level FlightAware
04:04PM 41.7280 -107.8310 82° East 523 602 37,000  Level FlightAware
04:04PM 41.7430 -107.7010 81° East 526 605 37,000  Level FlightAware
04:05PM 41.7550 -107.5760 83° East 530 610 37,000  Level FlightAware
04:05PM 41.7640 -107.4500 84° East 533 613 37,000  Level FlightAware
04:06PM 41.7720 -107.3160 85° East 533 613 37,000  Level FlightAware
04:07PM 41.7810 -107.1780 85° East 533 613 37,000  Level FlightAware
04:07PM 41.7880 -107.0710 85° East 533 613 37,000  Level FlightAware
04:08PM 41.7940 -106.9700 85° East 533 613 37,000  Level FlightAware
04:09PM 41.8030 -106.8410 85° East 533 613 37,000  Level FlightAware
04:09PM 41.8090 -106.7410 85° East 533 613 37,000  Level FlightAware
04:10PM 41.8180 -106.6060 85° East 533 613 37,000 420 Level FlightAware
04:11PM 41.8260 -106.3740 87° East 528 608 37,700 1,140 Climbing FlightAware
04:12PM 41.8340 -106.2380 85° East 519 597 38,600 960 Climbing FlightAware
04:12PM 41.8400 -106.1210 86° East 520 598 39,000 300 Climbing FlightAware
04:13PM 41.8480 -105.9880 85° East 516 594 39,000  Level FlightAware
04:14PM 41.8630 -105.8550 81° East 512 589 39,000  Level FlightAware
04:14PM 41.8750 -105.7480 81° East 514 592 39,000  Level FlightAware
04:15PM 41.8910 -105.6170 81° East 511 588 39,000  Level FlightAware
04:16PM 41.9040 -105.5060 81° East 510 587 39,000  Level FlightAware
04:16PM 41.9210 -105.3470 82° East 509 586 39,000  Level FlightAware
04:17PM 41.9360 -105.2190 81° East 514 592 39,000  Level FlightAware
04:17PM 41.9435 -105.1500 82° East 518 596 39,000  Level FlightAware ADS-B
04:18PM 41.9541 -105.0510 82° East 505 581 39,000  Level FlightAware ADS-B
04:18PM 41.9642 -104.9590 82° East 498 573 39,000  Level FlightAware ADS-B
04:19PM 41.9746 -104.8640 82° East 504 580 39,000  Level FlightAware ADS-B
04:19PM 41.9849 -104.7690 82° East 509 586 39,000  Level FlightAware ADS-B
04:20PM 41.9951 -104.6740 82° East 510 587 39,000  Level FlightAware ADS-B
04:20PM 42.0050 -104.5800 82° East 507 583 39,000  Level FlightAware ADS-B
04:21PM 42.0149 -104.4840 82° East 505 581 39,000  Level FlightAware ADS-B
04:21PM 42.0247 -104.3910 82° East 507 583 39,000  Level FlightAware ADS-B
04:22PM 42.0368 -104.2730 82° East 509 586 39,000  Level FlightAware ADS-B
04:23PM 42.0466 -104.1780 82° East 510 587 39,000  Level FlightAware ADS-B
04:23PM 42.0561 -104.0840 82° East 510 587 39,000  Level FlightAware ADS-B
04:24PM 42.0658 -103.9870 82° East 508 585 39,000  Level FlightAware ADS-B
04:24PM 42.0753 -103.8920 82° East 507 583 39,000  Level FlightAware ADS-B
04:25PM 42.0846 -103.7980 82° East 509 586 39,000  Level FlightAware ADS-B
04:25PM 42.0941 -103.7010 82° East 509 586 39,000  Level FlightAware ADS-B
04:26PM 42.1034 -103.6050 83° East 511 588 39,000  Level FlightAware ADS-B
04:26PM 42.1144 -103.4910 83° East 513 590 39,000  Level FlightAware ADS-B
04:27PM 42.1238 -103.3910 83° East 514 592 39,000  Level FlightAware ADS-B
04:27PM 42.1328 -103.2950 83° East 513 590 39,000  Level FlightAware ADS-B
04:28PM 42.1423 -103.1950 83° East 513 590 39,000  Level FlightAware ADS-B
04:28PM 42.1535 -103.0730 83° East 514 592 39,000  Level FlightAware ADS-B
04:29PM 42.1625 -102.9750 83° East 515 593 39,000  Level FlightAware ADS-B
04:29PM 42.1711 -102.8790 83° East 514 592 39,000  Level FlightAware ADS-B
04:30PM 42.1807 -102.7730 83° East 512 589 39,000  Level FlightAware ADS-B
04:31PM 42.1907 -102.6600 83° East 513 590 39,000  Level FlightAware ADS-B
04:31PM 42.1995 -102.5590 83° East 516 594 39,000  Level FlightAware ADS-B
04:32PM 42.2127 -102.4070 83° East 518 596 39,000  Level FlightAware ADS-B
04:32PM 42.2209 -102.3110 83° East 517 595 39,000  Level FlightAware ADS-B
04:33PM 42.2309 -102.1930 83° East 517 595 39,000  Level FlightAware ADS-B
04:34PM 42.2391 -102.0940 84° East 517 595 39,000  Level FlightAware ADS-B
04:35PM 42.2555 -101.8960 84° East 518 596 39,000  Level FlightAware ADS-B
04:35PM 42.2675 -101.7581 84° East 517 595 39,000  Level Denver Center
04:37PM 42.2836 -101.5433 84° East 515 593 39,000  Level Denver Center
04:38PM 42.2983 -101.3578 84° East 517 595 39,000  Level Denver Center
04:39PM 42.3144 -101.1428 84° East 515 593 39,000  Level Denver Center
04:40PM 42.3281 -100.9600 84° East 513 590 39,000  Level Denver Center
04:41PM 42.3428 -100.7433 85° East 517 595 39,000  Level Denver Center
04:42PM 42.3569 -100.5569 84° East 519 597 39,000  Level Denver Center
04:43PM 42.3703 -100.3364 85° East 525 604 39,000  Level Denver Center
04:44PM 42.3833 -100.1506 85° East 521 600 39,000  Level Denver Center
04:45PM 42.3953 -99.9600 85° East 528 608 39,000  Level Denver Center
04:46PM 42.4100 -99.7419 85° East 525 604 39,000  Level Denver Center
04:47PM 42.4208 -99.5644 85° East 523 602 39,000  Level Denver Center
04:48PM 42.4350 -99.3331 85° East 515 593 39,000  Level Denver Center
04:49PM 42.4461 -99.1367 86° East 519 597 39,000  Level Denver Center
04:50PM 42.4567 -98.9436 86° East 515 593 39,000  Level Denver Center
04:51PM 42.4667 -98.7508 86° East 512 589 39,000  Level Denver Center
04:57PM 42.5240 -97.5260 86° East 514 592 39,000  Level FlightAware
04:58PM 42.5300 -97.3810 87° East 513 590 39,000  Level FlightAware
04:59PM 42.5370 -97.1900 87° East 513 590 39,000  Level FlightAware
05:00PM 42.5430 -97.0500 87° East 511 588 39,000  Level FlightAware
05:00PM 42.5470 -96.9240 87° East 509 586 39,000  Level FlightAware
05:01PM 42.5520 -96.7770 87° East 508 585 39,000  Level FlightAware
05:02PM 42.5560 -96.6670 87° East 510 587 39,000  Level FlightAware
05:03PM 42.5610 -96.5150 87° East 515 593 39,000  Level FlightAware
05:03PM 42.5650 -96.3840 88° East 517 595 39,000  Level FlightAware
05:04PM 42.5700 -96.2470 87° East 516 594 39,000  Level FlightAware
05:05PM 42.5730 -96.1270 88° East 515 593 39,000  Level FlightAware
05:05PM 42.5770 -95.9870 88° East 514 592 39,000  Level FlightAware
05:06PM 42.5810 -95.8370 88° East 515 593 39,000  Level FlightAware
05:07PM 42.5840 -95.7020 88° East 517 595 39,000  Level FlightAware
05:07PM 42.5880 -95.5700 88° East 519 597 39,000  Level FlightAware
05:08PM 42.5910 -95.4270 88° East 522 601 39,000  Level FlightAware
05:09PM 42.5940 -95.2960 88° East 520 598 39,000  Level FlightAware
05:10PM 42.5970 -95.1610 88° East 518 596 39,000  Level FlightAware
05:10PM 42.6000 -95.0180 88° East 518 596 39,000  Level FlightAware
05:11PM 42.6020 -94.8840 89° East 513 590 39,000  Level FlightAware
05:12PM 42.6040 -94.7610 89° East 512 589 39,000  Level FlightAware
05:12PM 42.6060 -94.6400 89° East 514 592 39,000  Level FlightAware
05:13PM 42.6080 -94.4990 89° East 514 592 39,000  Level FlightAware
05:14PM 42.6100 -94.3830 89° East 515 593 39,000  Level FlightAware
05:14PM 42.6120 -94.2250 89° East 517 595 39,000  Level FlightAware
05:15PM 42.6130 -94.0970 89° East 516 594 39,000  Level FlightAware
05:16PM 42.6140 -93.9540 89° East 516 594 39,000  Level FlightAware
05:16PM 42.6150 -93.8240 89° East 517 595 39,000  Level FlightAware
05:17PM 42.6160 -93.6900 89° East 516 594 39,000  Level FlightAware
05:18PM 42.6250 -93.5660 84° East 519 597 39,000  Level FlightAware
05:19PM 42.6410 -93.4110 82° East 519 597 39,000  Level FlightAware
05:19PM 42.6570 -93.2680 81° East 516 594 39,000  Level FlightAware
05:20PM 42.6710 -93.1460 81° East 518 596 39,000  Level FlightAware
05:21PM 42.6860 -93.0140 81° East 517 595 39,000  Level FlightAware
05:21PM 42.6970 -92.9120 82° East 515 593 39,000  Level FlightAware
05:22PM 42.7140 -92.7630 81° East 518 596 39,000  Level FlightAware
05:23PM 42.7280 -92.6330 82° East 521 600 39,000  Level FlightAware
05:23PM 42.7430 -92.4940 82° East 522 601 39,000  Level FlightAware
05:24PM 42.7590 -92.3530 81° East 522 601 39,000  Level FlightAware
05:25PM 42.7710 -92.2320 82° East 523 602 39,000  Level FlightAware
05:25PM 42.7870 -92.0800 82° East 523 602 39,000  Level FlightAware
05:26PM 42.7980 -91.9730 82° East 525 604 39,000  Level FlightAware
05:27PM 42.8130 -91.8330 82° East 528 608 39,000  Level FlightAware
05:27PM 42.8270 -91.6950 82° East 529 609 39,000  Level FlightAware
05:28PM 42.8390 -91.5730 82° East 529 609 39,000  Level FlightAware
05:29PM 42.8520 -91.4430 82° East 527 606 39,000  Level FlightAware
05:29PM 42.8650 -91.3050 83° East 524 603 39,000  Level FlightAware
05:30PM 42.8740 -91.2170 82° East 522 601 39,000  Level FlightAware
05:30PM 42.8860 -91.0900 83° East 520 598 39,000  Level FlightAware
05:31PM 42.8980 -90.9590 83° East 520 598 39,000  Level FlightAware
05:32PM 42.9100 -90.8320 83° East 522 601 39,000  Level FlightAware
05:33PM 42.9240 -90.6820 83° East 522 601 39,000  Level FlightAware
05:33PM 42.9340 -90.5630 83° East 518 596 39,000  Level FlightAware
05:34PM 42.9480 -90.4130 83° East 513 590 39,000  Level FlightAware
05:35PM 42.9590 -90.2830 83° East 513 590 39,000  Level FlightAware
05:35PM 42.9680 -90.1820 83° East 515 593 39,000  Level FlightAware
05:36PM 42.9820 -90.0240 83° East 521 600 39,000  Level FlightAware
05:37PM 42.9930 -89.8930 83° East 522 601 39,000  Level FlightAware
05:37PM 43.0050 -89.7470 84° East 521 600 39,000  Level FlightAware
05:38PM 43.0150 -89.6240 84° East 520 598 39,000  Level FlightAware
05:39PM 43.0260 -89.4900 84° East 519 597 39,000  Level FlightAware
05:39PM 43.0380 -89.3470 83° East 525 604 39,000  Level FlightAware
05:40PM 43.0490 -89.2020 84° East 525 604 39,000  Level FlightAware
05:41PM 43.0590 -89.0690 84° East 525 604 39,000  Level FlightAware
05:42PM 43.0700 -88.9320 84° East 525 604 39,000  Level FlightAware
05:42PM 43.0770 -88.8290 85° East 526 605 39,000  Level FlightAware
05:43PM 43.0870 -88.6990 84° East 527 606 39,000  Level FlightAware
05:43PM 43.0980 -88.5480 84° East 529 609 39,000  Level FlightAware
05:44PM 43.1060 -88.4430 84° East 530 610 39,000  Level FlightAware
05:45PM 43.1130 -88.3030 86° East 530 610 39,000  Level FlightAware
05:45PM 43.1050 -88.1670 95° East 531 611 39,000  Level FlightAware
05:46PM 43.0890 -88.0240 99° East 507 583 39,000  Level FlightAware
05:47PM 43.0760 -87.9070 99° East 499 574 39,000  Level FlightAware
05:48PM 43.0590 -87.7540 99° East 508 585 39,000  Level FlightAware
05:48PM 43.0450 -87.6260 98° East 514 592 39,000  Level FlightAware
05:49PM 43.0320 -87.5130 99° East 516 594 39,000  Level FlightAware
05:49PM 43.0170 -87.3850 99° East 519 597 39,000  Level FlightAware
05:50PM 43.0020 -87.2470 98° East 523 602 39,000  Level FlightAware
05:51PM 42.9880 -87.1320 99° East 523 602 39,000  Level FlightAware
05:51PM 42.9720 -86.9910 99° East 520 598 39,000  Level FlightAware
05:52PM 42.9560 -86.8600 99° East 518 596 39,000  Level FlightAware
05:53PM 42.9410 -86.7330 99° East 520 598 39,000  Level FlightAware
05:54PM 42.9230 -86.5870 100° East 520 598 39,000  Level FlightAware
05:54PM 42.9060 -86.4500 100° East 518 596 39,000  Level FlightAware
05:55PM 42.8900 -86.3160 99° East 521 600 39,000  Level FlightAware
05:56PM 42.8760 -86.2050 100° East 523 602 39,000  Level FlightAware
05:56PM 42.8570 -86.0540 100° East 521 600 39,000  Level FlightAware
05:57PM 42.8380 -85.9070 100° East 521 600 39,000  Level FlightAware
05:58PM 42.8210 -85.7770 100° East 520 598 39,000  Level FlightAware
05:58PM 42.8030 -85.6370 100° East 523 602 39,000  Level FlightAware
05:59PM 42.7850 -85.5040 100° East 529 609 39,000  Level FlightAware
06:00PM 42.7690 -85.3760 100° East 523 602 39,000  Level FlightAware
06:01PM 42.7480 -85.2270 101° East 520 598 39,000  Level FlightAware
06:01PM 42.7290 -85.0850 100° East 519 597 39,000  Level FlightAware
06:02PM 42.7120 -84.9590 100° East 521 600 39,000  Level FlightAware
06:03PM 42.6930 -84.8220 101° East 523 602 39,000  Level FlightAware
06:03PM 42.6770 -84.7050 100° East 521 600 39,000  Level FlightAware
06:04PM 42.6590 -84.5760 101° East 519 597 39,000  Level FlightAware
06:05PM 42.6400 -84.4410 101° East 516 594 39,000  Level FlightAware
06:05PM 42.6250 -84.3400 101° East 513 590 39,000  Level FlightAware
06:06PM 42.6070 -84.2090 101° East 511 588 39,000  Level FlightAware
06:07PM 42.5870 -84.0760 102° East 507 583 39,000  Level FlightAware
06:07PM 42.5700 -83.9600 101° East 507 583 39,000  Level FlightAware
06:08PM 42.5480 -83.8110 101° East 509 586 39,000  Level FlightAware
06:09PM 42.5280 -83.6730 101° East 511 588 39,000  Level FlightAware
06:09PM 42.5090 -83.5460 101° East 513 590 39,000  Level FlightAware
06:10PM 42.4880 -83.4060 101° East 515 593 39,000  Level FlightAware
06:11PM 42.4680 -83.2760 102° East 510 587 39,000  Level FlightAware
06:12PM 42.4490 -83.1520 102° East 511 588 39,000  Level FlightAware
06:12PM 42.4280 -83.0150 102° East 511 588 39,000  Level FlightAware
06:13PM 42.4090 -82.8940 102° East 507 583 39,000  Level FlightAware
06:14PM 42.3940 -82.7740 100° East 502 578 39,000  Level FlightAware
06:14PM 42.3810 -82.6210 97° East 501 577 39,000  Level FlightAware
06:15PM 42.3710 -82.5000 96° East 501 577 39,000  Level FlightAware
06:16PM 42.3620 -82.3890 96° East 498 573 39,000  Level FlightAware
06:16PM 42.3480 -82.2400 97° East 496 571 39,000  Level FlightAware
06:17PM 42.3380 -82.1250 97° East 496 571 39,000  Level FlightAware
06:18PM 42.3250 -81.9950 98° East 496 571 39,000  Level FlightAware
06:19PM 42.3130 -81.8630 97° East 499 574 39,000  Level FlightAware
06:19PM 42.2990 -81.7240 98° East 497 572 39,000  Level FlightAware
06:20PM 42.2870 -81.5990 97° East 496 571 39,000  Level FlightAware
06:21PM 42.2710 -81.4360 98° East 496 571 39,000  Level FlightAware
06:22PM 42.2560 -81.2890 98° East 494 568 39,000  Level FlightAware
06:22PM 42.2430 -81.1590 98° East 493 567 39,000  Level FlightAware
06:23PM 42.2320 -81.0440 97° East 492 566 39,000  Level FlightAware
06:24PM 42.2180 -80.9120 98° East 492 566 39,000  Level FlightAware
06:24PM 42.2050 -80.7890 98° East 490 564 39,000  Level FlightAware
06:25PM 42.1880 -80.6240 98° East 490 564 39,000  Level FlightAware
06:26PM 42.1750 -80.5020 98° East 488 562 39,000  Level FlightAware
06:27PM 42.1640 -80.3910 98° East 486 559 39,000  Level FlightAware
06:27PM 42.1490 -80.2510 98° East 482 555 39,000  Level FlightAware
06:28PM 42.1340 -80.1140 98° East 482 555 39,000  Level FlightAware
06:29PM 42.1210 -79.9990 99° East 482 555 39,000  Level FlightAware
06:30PM 42.1060 -79.8630 98° East 479 551 39,000  Level FlightAware
06:30PM 42.0940 -79.7500 98° East 478 550 39,000  Level FlightAware
06:31PM 42.0800 -79.6310 99° East 478 550 39,000  Level FlightAware
06:32PM 42.0660 -79.5010 98° East 478 550 39,000  Level FlightAware
06:32PM 42.0520 -79.3820 99° East 479 551 39,000  Level FlightAware
06:33PM 42.0380 -79.2620 99° East 481 554 39,000  Level FlightAware
06:34PM 42.0240 -79.1430 99° East 481 554 39,000  Level FlightAware
06:34PM 42.0110 -79.0350 99° East 479 551 39,000  Level FlightAware
06:35PM 41.9930 -78.8810 99° East 476 548 39,000  Level FlightAware
06:36PM 41.9780 -78.7540 99° East 474 545 39,000  Level FlightAware
06:37PM 41.9630 -78.6320 99° East 473 544 39,000  Level FlightAware
06:37PM 41.9480 -78.5110 99° East 476 548 39,000  Level FlightAware
06:38PM 41.9350 -78.4040 99° East 476 548 39,000  Level FlightAware
06:39PM 41.9200 -78.2840 99° East 476 548 39,000  Level FlightAware
06:39PM 41.9020 -78.1440 100° East 478 550 39,000  Level FlightAware
06:40PM 41.8860 -78.0130 99° East 478 550 39,000  Level FlightAware
06:41PM 41.8710 -77.9000 100° East 479 551 39,000  Level FlightAware
06:41PM 41.8450 -77.7770 106° East 479 551 39,000  Level FlightAware
06:42PM 41.8190 -77.6760 109° East 482 555 39,000  Level FlightAware
06:43PM 41.7900 -77.5670 110° East 486 559 39,000  Level FlightAware
06:43PM 41.7550 -77.4350 110° East 486 559 39,000  Level FlightAware
06:44PM 41.7230 -77.3150 110° East 486 559 39,000  Level FlightAware
06:45PM 41.6960 -77.2170 110° East 486 559 39,000  Level FlightAware
06:46PM 41.6590 -77.0770 109° East 489 563 39,000  Level FlightAware
06:46PM 41.6280 -76.9630 110° East 495 570 39,000  Level FlightAware
06:47PM 41.6020 -76.8700 110° East 497 572 39,000  Level FlightAware
06:47PM 41.5710 -76.7550 110° East 500 575 39,000  Level FlightAware ADS-B
06:48PM 41.5403 -76.6432 110° East 501 577 39,000  Level FlightAware ADS-B
06:49PM 41.5152 -76.5522 110° East 502 578 39,000  Level FlightAware ADS-B
06:49PM 41.4889 -76.4571 110° East 504 580 39,000 -120 Level FlightAware ADS-B
06:50PM 41.4639 -76.3667 110° East 507 583 38,900 -960 Descending FlightAware ADS-B
06:50PM 41.4377 -76.2731 110° East 508 585 38,000 -2,040 Descending FlightAware ADS-B
06:51PM 41.4131 -76.1851 110° East 502 578 36,800 -2,580 Descending FlightAware ADS-B
06:51PM 41.3887 -76.0984 111° Southeast 497 572 35,400 -2,760 Descending FlightAware ADS-B
06:52PM 41.3633 -76.0079 110° East 499 574 34,000 -2,760 Descending FlightAware ADS-B
06:52PM 41.3365 -75.9132 111° Southeast 500 575 32,500 -2,700 Descending FlightAware ADS-B
06:53PM 41.3108 -75.8230 111° Southeast 498 573 31,100 -2,820 Descending FlightAware ADS-B
06:53PM 41.2863 -75.7372 111° Southeast 499 574 29,600 -3,120 Descending FlightAware ADS-B
06:54PM 41.2616 -75.6563 112° Southeast 499 574 28,100 -2,940 Descending FlightAware ADS-B
06:54PM 41.2322 -75.5670 114° Southeast 491 565 26,700 -2,580 Descending FlightAware ADS-B
06:55PM 41.2043 -75.4835 114° Southeast 481 554 25,400 -2,460 Descending FlightAware ADS-B
06:55PM 41.1771 -75.4025 114° Southeast 473 544 24,200 -2,280 Descending FlightAware ADS-B
06:56PM 41.1497 -75.3212 114° Southeast 467 537 23,100 -1,200 Descending FlightAware ADS-B
06:56PM 41.1236 -75.2442 114° Southeast 458 527 23,000 -540 Descending FlightAware ADS-B
06:57PM 41.0960 -75.1625 114° Southeast 456 525 22,600 -900 Descending FlightAware ADS-B
06:57PM 41.0697 -75.0855 114° Southeast 457 526 22,100 -720 Descending FlightAware ADS-B
06:58PM 41.0419 -75.0043 114° Southeast 457 526 21,900 -540 Descending FlightAware ADS-B
06:58PM 41.0152 -74.9256 114° Southeast 456 525 21,600 -660 Descending FlightAware ADS-B
06:59PM 40.9966 -74.8541 109° East 452 520 21,300 -600 Descending FlightAware ADS-B
06:59PM 40.9898 -74.8116 102° East 448 516 21,200 -540 Descending FlightAware ADS-B
07:00PM 40.9803 -74.7304 99° East 447 514 20,900 -540 Descending FlightAware ADS-B
07:00PM 40.9717 -74.6494 98° East 445 512 20,700 -480 Descending FlightAware ADS-B
07:01PM 40.9622 -74.5593 98° East 445 512 20,400 -600 Descending FlightAware ADS-B
07:01PM 40.9535 -74.4791 98° East 435 501 20,100 -900 Descending FlightAware ADS-B
07:02PM 40.9446 -74.3993 98° East 416 479 19,500 -1,020 Descending FlightAware ADS-B
07:02PM 40.9364 -74.3255 98° East 392 451 19,100 -780 Descending FlightAware ADS-B
07:02PM 40.9338 -74.3025 99° East 386 444 19,000 -360 Descending FlightAware ADS-B
07:03PM 40.9307 -74.2797 100° East 375 432 19,000  Level FlightAware ADS-B
07:03PM 40.9240 -74.2537 109° East 367 422 19,000  Level FlightAware ADS-B
07:03PM 40.9180 -74.2391 119° Southeast 364 419 19,000  Level FlightAware ADS-B
07:03PM 40.9171 -74.2374 125° Southeast 364 419 19,000  Level FlightAware ADS-B
07:03PM 40.9109 -74.2262 126° Southeast 362 417 19,000  Level FlightAware ADS-B
07:03PM 40.8937 -74.2048 137° Southeast 360 414 19,000 -240 Level FlightAware ADS-B
07:03PM 40.8776 -74.1899 145° Southeast 359 413 18,900 -1,020 Descending FlightAware ADS-B
07:04PM 40.8347 -74.1524 147° Southeast 354 407 18,300 -1,320 Descending FlightAware ADS-B
07:04PM 40.8022 -74.1242 147° Southeast 352 405 17,700 -1,440 Descending FlightAware ADS-B
07:04PM 40.8008 -74.1230 147° Southeast 348 400 17,700 -1,440 Level FlightAware ADS-B
07:05PM 40.7840 -74.1108 151° Southeast 345 397 17,400 -1,440 Descending FlightAware ADS-B
07:05PM 40.7573 -74.0944 155° Southeast 343 395 17,000 -1,500 Descending FlightAware ADS-B
07:05PM 40.7074 -74.0645 156° South 337 388 16,100 -1,440 Descending FlightAware ADS-B
07:06PM 40.6559 -74.0338 156° South 332 382 15,300 -1,380 Descending FlightAware ADS-B
07:07PM 40.6133 -74.0079 155° Southeast 331 381 14,600 -1,440 Descending FlightAware ADS-B
07:07PM 40.5665 -73.9791 155° Southeast 326 375 13,800 -1,500 Descending FlightAware ADS-B
07:08PM 40.5244 -73.9531 155° Southeast 322 371 13,000 -1,560 Descending FlightAware ADS-B
07:08PM 40.4869 -73.9297 155° Southeast 321 369 12,300 -1,440 Descending FlightAware ADS-B
07:09PM 40.4466 -73.9044 154° Southeast 316 364 11,600 -1,380 Descending FlightAware ADS-B
07:09PM 40.4060 -73.8792 155° Southeast 310 357 10,900 -1,380 Descending FlightAware ADS-B
07:09PM 40.3900 -73.8655 147° Southeast 312 359 10,600 -1,440 Descending FlightAware ADS-B
07:10PM 40.3625 -73.8323 137° Southeast 309 356 10,000 -1,320 Descending FlightAware ADS-B
07:10PM 40.3464 -73.8126 137° Southeast 306 352 9,700 -1,260 Descending FlightAware ADS-B
07:10PM 40.3286 -73.7885 134° Southeast 303 349 9,300 -1,380 Descending FlightAware ADS-B
07:11PM 40.3213 -73.7675 115° Southeast 300 345 9,000 -1,440 Descending FlightAware ADS-B
07:11PM 40.3180 -73.7434 100° East 296 341 8,700 -900 Descending FlightAware ADS-B
07:11PM 40.3145 -73.7062 97° East 286 329 8,500 -720 Descending FlightAware ADS-B
07:11PM 40.3130 -73.6830 95° East 278 320 8,300 -720 Descending FlightAware ADS-B
07:11PM 40.3133 -73.6760 87° East 275 316 8,300 -540 Level FlightAware ADS-B
07:12PM 40.3225 -73.6490 66° East 264 304 8,100 -720 Descending FlightAware ADS-B
07:12PM 40.3298 -73.6405 42° Northeast 259 298 8,000 -480 Descending FlightAware ADS-B
07:12PM 40.3357 -73.6357 32° Northeast 255 293 8,000 -300 Level FlightAware ADS-B
07:12PM 40.3514 -73.6248 28° Northeast 249 287 7,900 -240 Descending FlightAware ADS-B
07:13PM 40.3668 -73.6143 27° Northeast 246 283 7,900 -540 Level FlightAware ADS-B
07:13PM 40.3878 -73.6000 27° Northeast 241 277 7,600 -960 Descending FlightAware ADS-B
07:13PM 40.4167 -73.5807 27° Northeast 241 277 7,100 -960 Descending FlightAware ADS-B
07:14PM 40.4528 -73.5567 27° Northeast 237 273 6,600 -1,020 Descending FlightAware ADS-B
07:15PM 40.4884 -73.5317 28° Northeast 233 268 5,900 -1,020 Descending FlightAware ADS-B
07:15PM 40.5190 -73.5090 29° Northeast 231 266 5,400 -900 Descending FlightAware
07:16PM 40.5430 -73.4910 30° Northeast 228 262 5,000 -540 Descending FlightAware
07:16PM 40.5710 -73.4700 30° Northeast 232 267 4,900 -120 Descending FlightAware
07:16PM 40.5940 -73.4530 29° Northeast 231 266 4,900  Level FlightAware
07:17PM 40.6210 -73.4330 29° Northeast 230 265 4,900  Level FlightAware
07:17PM 40.6350 -73.4250 23° Northeast 225 259 4,900  Level FlightAware
07:18PM 40.6650 -73.4240 North 224 258 4,900  Level FlightAware
07:18PM 40.6940 -73.4240 360° North 228 262 4,900 -120 Level FlightAware
07:19PM 40.7220 -73.4280 354° North 220 253 4,800 -300 Descending FlightAware
07:19PM 40.7320 -73.4360 329° Northwest 213 245 4,700 -1,140 Descending FlightAware
07:19PM 40.7560 -73.4640 319° Northwest 216 249 4,000 -780 Descending FlightAware
07:20PM 40.7790 -73.4910 318° Northwest 222 255 3,900 -120 Descending FlightAware
07:20PM 40.8000 -73.5150 319° Northwest 195 224 3,900 -240 Level FlightAware
07:21PM 40.8150 -73.5340 316° Northwest 183 211 3,700 -600 Descending FlightAware
07:21PM 40.8190 -73.5500 288° West 179 206 3,500 -1,020 Descending FlightAware
07:21PM 40.8130 -73.5770 254° West 180 207 3,000 -720 Descending FlightAware
07:22PM 40.8030 -73.6060 246° West 185 213 2,900 -180 Descending FlightAware
07:22PM 40.7980 -73.6230 249° West 186 214 2,900  Level FlightAware
07:23PM 40.7880 -73.6540 247° West 185 213 2,900  Level FlightAware
07:23PM 40.7820 -73.6640 232° Southwest 185 213 2,900 -480 Level FlightAware
07:23PM 40.7630 -73.6840 219° Southwest 189 217 2,600 -840 Descending FlightAware
07:24PM 40.7510 -73.6930 210° Southwest 190 219 2,300 -960 Descending FlightAware
07:24PM 40.7300 -73.7070 207° Southwest 176 203 1,900 -900 Descending FlightAware
07:24PM 40.7120 -73.7200 209° Southwest 149 171 1,500 -900 Descending FlightAware
07:25PM 40.7050 -73.7250 208° Southwest 136 157 1,300 -720 Descending FlightAware
07:25PM 40.6900 -73.7360 209° Southwest 122 140 1,000 -660 Descending FlightAware
07:26PM 40.6750 -73.7450 204° Southwest 121 139 700 -660 Descending FlightAware
07:26PM 40.6650 -73.7520 208° Southwest 123 142 500 -720 Descending FlightAware
07:26PM 40.6570 -73.7580 210° Southwest 124 143 300 -780 Descending FlightAware
07:27PM 40.6440 -73.7680 210° Southwest 118 136 -660 Descending FlightAware
07:27PM 40.6390 -73.7730 217° Southwest 121 139  Level FlightAware
07:27PM 40.6300 -73.7800 211° Southwest 51 59  Level FlightAware
07:28PM 40.6270 -73.7810 194° South 38 44  Level FlightAware
07:28PM 40.6260 -73.7830 237° Southwest 15 17  Level FlightAware
07:28PM 40.6270 -73.7840 323° Northwest 25 29  Level FlightAware
07:28PM 40.6280 -73.7830 37° Northeast 31 36  Level FlightAware
07:29PM 40.6290 -73.7820 37° Northeast 15 17  Level FlightAware
07:29PM 40.6300 -73.7810 37° Northeast 33 38  Level FlightAware
07:30PM 40.6310 -73.7800 37° Northeast 28 32  Level FlightAware
07:30PM 40.6330 -73.7800 360° North 28 32  Level FlightAware
07:31PM 40.6340 -73.7810 323° Northwest 29 33  Level FlightAware
07:31PM 40.6350 -73.7820 323° Northwest 9 10  Level FlightAware
07:33PM 40.6350 -73.7830 270° West 15 17  Level FlightAware
07:33PM 40.6360 -73.7850 303° West 17 20  Level FlightAware
07:34PM 40.6370 -73.7870 303° West 15 17  Level FlightAware
07:35PM 40.6380 -73.7890 303° West 32 37  Level FlightAware
07:36PM 40.6390 -73.7920 294° West 18 21  Level FlightAware
07:36PM 40.6400 -73.7940 303° West 20 23  Level FlightAware
07:39PM 40.6410 -73.7950 323° Northwest 27 31  Level FlightAware
07:39PM 40.6410 -73.7960 270° West 17 20  Level FlightAware
07:40PM 40.6420 -73.7980 303° West 19 22  Level FlightAware
07:42PM 40.6450 -73.8030 308° West 20 23  Level FlightAware